Time;durP1;ratioP1;P1;durP2;ratioP2;P2;SDS_P1;SDS_P2;PMS_P1;PMS_P2;Temp;Humidity;BMP_temperature;BMP_pressure;BME280_temperature;BME280_humidity;BME280_pressure;Samples;Min_cycle;Max_cycle;Signal;HPM_P1;HPM_P2
2022/10/19 00:01:47;;;;;;;7.75;1.95;;;10.80;99.90;;;;;;5071881;28;20451;-67
2022/10/19 00:04:13;;;;;;;5.18;1.60;;;10.70;99.90;;;;;;5071481;28;20044;-67
2022/10/19 00:06:38;;;;;;;3.83;1.50;;;10.70;99.90;;;;;;5071584;28;20093;-67
2022/10/19 00:09:04;;;;;;;11.95;2.20;;;10.70;99.90;;;;;;5070704;28;20039;-67
2022/10/19 00:11:30;;;;;;;2.00;1.80;;;10.60;99.90;;;;;;5072002;28;20041;-67
2022/10/19 00:13:57;;;;;;;3.60;1.60;;;10.60;99.90;;;;;;5071541;28;20094;-67
2022/10/19 00:16:24;;;;;;;7.22;1.80;;;10.60;99.90;;;;;;5072020;28;20040;-67
2022/10/19 00:18:50;;;;;;;7.18;2.20;;;10.60;99.90;;;;;;5070373;28;20154;-67
2022/10/19 00:21:17;;;;;;;1.63;1.52;;;10.50;99.90;;;;;;5071944;28;20075;-67
2022/10/19 00:23:44;;;;;;;2.00;1.70;;;10.50;99.90;;;;;;5071605;28;20047;-67
2022/10/19 00:26:10;;;;;;;4.63;1.30;;;10.40;99.90;;;;;;5071542;28;20036;-67
2022/10/19 00:28:36;;;;;;;5.05;1.90;;;10.30;99.90;;;;;;5071889;28;20044;-67
2022/10/19 00:31:07;;;;;;;6.70;1.88;;;10.30;99.90;;;;;;5071888;28;20029;-67
2022/10/19 00:33:33;;;;;;;2.95;1.80;;;10.30;99.90;;;;;;5070598;28;20044;-67
2022/10/19 00:35:59;;;;;;;2.85;1.40;;;10.10;99.90;;;;;;5071292;28;20042;-67
2022/10/19 00:38:24;;;;;;;5.53;2.40;;;10.10;99.90;;;;;;5070459;28;20076;-67
2022/10/19 00:40:50;;;;;;;2.33;1.25;;;10.10;99.90;;;;;;5070384;28;20051;-67
2022/10/19 00:43:19;;;;;;;2.45;1.63;;;10.10;99.90;;;;;;5070365;28;20453;-67
2022/10/19 00:45:44;;;;;;;5.53;1.67;;;10.10;99.90;;;;;;5071367;28;20029;-67
2022/10/19 00:48:15;;;;;;;2.35;2.00;;;10.10;99.90;;;;;;5075108;28;20043;-67
2022/10/19 00:50:42;;;;;;;3.13;1.67;;;10.10;99.90;;;;;;5074524;28;20051;-67
2022/10/19 00:53:08;;;;;;;7.13;2.05;;;10.00;99.90;;;;;;5075889;28;20037;-67
2022/10/19 00:55:36;;;;;;;2.88;1.50;;;10.00;99.90;;;;;;5075139;28;20077;-67
2022/10/19 00:58:02;;;;;;;2.75;1.75;;;10.00;99.90;;;;;;5075708;28;20040;-67
2022/10/19 01:00:28;;;;;;;1.88;1.70;;;10.00;99.90;;;;;;5075398;28;20044;-67
2022/10/19 01:02:55;;;;;;;5.53;2.15;;;9.90;99.90;;;;;;5075477;28;20090;-67
2022/10/19 01:05:21;;;;;;;8.63;1.90;;;9.70;99.90;;;;;;5075024;28;20036;-67
2022/10/19 01:07:46;;;;;;;3.67;1.60;;;9.80;99.90;;;;;;5075532;28;20037;-67
2022/10/19 01:10:12;;;;;;;2.22;1.55;;;9.90;99.90;;;;;;5075470;28;20036;-67
2022/10/19 01:12:46;;;;;;;4.45;1.70;;;9.90;99.90;;;;;;5075104;28;20072;-67
2022/10/19 01:15:26;;;;;;;4.07;1.90;;;9.80;99.90;;;;;;5074843;28;20083;-67
2022/10/19 01:18:40;;;;;;;7.85;1.80;;;9.60;99.90;;;;;;5075247;28;20048;-67
2022/10/19 01:21:22;;;;;;;3.38;2.55;;;9.70;99.90;;;;;;5072577;28;20404;-67
2022/10/19 01:24:26;;;;;;;2.85;1.63;;;9.70;99.90;;;;;;5074814;28;20405;-67
2022/10/19 01:27:19;;;;;;;4.85;1.80;;;9.70;99.90;;;;;;5074658;28;20045;-67
2022/10/19 01:30:09;;;;;;;3.83;1.67;;;9.50;99.90;;;;;;5075156;28;20037;-67
2022/10/19 01:32:48;;;;;;;6.75;1.75;;;9.60;99.90;;;;;;5074825;28;20116;-67
2022/10/19 01:35:27;;;;;;;3.72;1.73;;;9.60;99.90;;;;;;5074341;28;20086;-67
2022/10/19 01:38:09;;;;;;;3.30;2.00;;;9.60;99.90;;;;;;5074631;28;20534;-67
2022/10/19 01:40:56;;;;;;;2.53;1.98;;;9.60;99.90;;;;;;5074773;28;20476;-67
2022/10/19 01:43:35;;;;;;;2.75;1.63;;;9.60;99.90;;;;;;5074407;28;20504;-67
2022/10/19 01:46:22;;;;;;;4.22;1.73;;;9.70;99.90;;;;;;5074432;28;20033;-67
2022/10/19 01:48:56;;;;;;;2.40;1.90;;;9.60;99.90;;;;;;5074538;28;20068;-67
2022/10/19 01:51:27;;;;;;;5.32;1.77;;;9.60;99.90;;;;;;5073245;28;20040;-67
2022/10/19 01:53:58;;;;;;;4.22;1.83;;;9.60;99.90;;;;;;5074294;28;20036;-67
2022/10/19 01:56:26;;;;;;;3.17;1.70;;;9.70;99.90;;;;;;5073110;28;20044;-67
2022/10/19 01:58:56;;;;;;;7.43;1.75;;;9.60;99.90;;;;;;5074405;28;20093;-67
2022/10/19 02:01:26;;;;;;;6.18;3.00;;;9.80;99.90;;;;;;5056397;28;20029;-67
2022/10/19 02:03:53;;;;;;;2.55;1.70;;;9.90;99.90;;;;;;5073811;28;20400;-67
2022/10/19 02:06:19;;;;;;;5.72;2.00;;;9.80;99.90;;;;;;5074155;28;20115;-67
2022/10/19 02:08:51;;;;;;;3.55;1.60;;;9.80;99.90;;;;;;5074218;28;20044;-67
2022/10/19 02:11:19;;;;;;;3.47;1.95;;;9.90;99.90;;;;;;5074206;28;20044;-67
2022/10/19 02:13:50;;;;;;;2.78;1.90;;;10.00;99.90;;;;;;5072312;28;20586;-67
2022/10/19 02:16:22;;;;;;;5.72;2.10;;;9.90;99.90;;;;;;5073978;28;20037;-67
2022/10/19 02:18:49;;;;;;;;;;;10.00;99.90;;;;;;5074283;28;20123;-68
2022/10/19 02:21:15;;;;;;;4.28;1.90;;;10.10;99.90;;;;;;5074430;28;19922;-67
2022/10/19 02:23:41;;;;;;;3.67;1.98;;;10.00;99.90;;;;;;5073901;28;20119;-68
2022/10/19 02:26:07;;;;;;;3.40;1.50;;;10.10;99.90;;;;;;5072204;28;20477;-67
2022/10/19 02:28:33;;;;;;;2.15;1.85;;;10.00;99.90;;;;;;5073790;28;20075;-67
2022/10/19 02:30:59;;;;;;;9.65;2.20;;;10.00;99.90;;;;;;5073629;28;20083;-67
2022/10/19 02:33:27;;;;;;;8.48;1.88;;;10.00;99.90;;;;;;5073840;28;20040;-67
2022/10/19 02:35:53;;;;;;;4.05;2.10;;;10.00;99.90;;;;;;5073086;28;20051;-67
2022/10/19 02:38:22;;;;;;;8.80;2.65;;;10.10;99.90;;;;;;5073612;28;20044;-67
2022/10/19 02:41:07;;;;;;;3.55;1.85;;;10.10;99.90;;;;;;5072495;28;20040;-68
2022/10/19 02:43:36;;;;;;;3.55;2.05;;;10.10;99.90;;;;;;5073393;28;20094;-67
2022/10/19 02:46:21;;;;;;;10.65;1.80;;;10.10;99.90;;;;;;5072058;28;20105;-67
2022/10/19 02:48:49;;;;;;;6.20;1.75;;;10.00;99.90;;;;;;5073500;28;20048;-67
2022/10/19 02:51:29;;;;;;;7.38;2.10;;;10.00;99.90;;;;;;5072068;28;20036;-67
2022/10/19 02:53:55;;;;;;;4.88;2.00;;;10.10;99.90;;;;;;5071740;28;20036;-67
2022/10/19 02:56:21;;;;;;;2.25;2.00;;;10.10;99.90;;;;;;5073404;28;20480;-68
2022/10/19 02:58:47;;;;;;;3.95;1.98;;;10.10;99.90;;;;;;5073281;28;20520;-67
2022/10/19 03:01:13;;;;;;;5.85;2.08;;;10.10;99.90;;;;;;5073143;28;20032;-67
2022/10/19 03:03:39;;;;;;;4.20;1.90;;;10.10;99.90;;;;;;5073299;28;20052;-67
2022/10/19 03:06:04;;;;;;;5.18;3.10;;;10.10;99.90;;;;;;5072732;28;20040;-67
2022/10/19 03:08:30;;;;;;;6.88;1.90;;;10.20;99.90;;;;;;5072899;28;20393;-68
2022/10/19 03:10:58;;;;;;;2.00;1.75;;;10.20;99.90;;;;;;5072449;28;20074;-67
2022/10/19 03:13:23;;;;;;;2.05;1.85;;;10.20;99.90;;;;;;5071503;28;20036;-67
2022/10/19 03:15:49;;;;;;;6.40;2.15;;;10.20;99.90;;;;;;5071623;28;20048;-67
2022/10/19 03:18:14;;;;;;;6.35;2.08;;;10.20;99.90;;;;;;5071715;28;20141;-67
2022/10/19 03:20:40;;;;;;;4.97;2.20;;;10.20;99.90;;;;;;5072478;28;20032;-67
2022/10/19 03:23:06;;;;;;;4.25;2.33;;;10.30;99.90;;;;;;5072887;28;20040;-67
2022/10/19 03:25:31;;;;;;;13.35;2.50;;;10.30;99.90;;;;;;5072594;28;20051;-68
2022/10/19 03:27:57;;;;;;;9.63;2.15;;;10.30;99.90;;;;;;5072832;28;20074;-67
2022/10/19 03:30:22;;;;;;;2.67;1.95;;;10.30;99.90;;;;;;5072664;28;20040;-67
2022/10/19 03:32:48;;;;;;;3.97;2.00;;;10.30;99.90;;;;;;5072393;28;20713;-67
2022/10/19 03:35:13;;;;;;;5.30;2.72;;;10.30;99.90;;;;;;5072282;28;20443;-68
2022/10/19 03:37:39;;;;;;;5.90;2.20;;;10.20;99.90;;;;;;5072591;28;20044;-67
2022/10/19 03:40:05;;;;;;;3.60;2.13;;;10.20;99.90;;;;;;5072671;28;20032;-67
2022/10/19 03:42:30;;;;;;;4.50;2.17;;;10.30;99.90;;;;;;5072294;28;20051;-67
2022/10/19 03:44:56;;;;;;;4.53;1.90;;;10.40;99.90;;;;;;5072190;28;20045;-67
2022/10/19 03:47:21;;;;;;;5.28;2.22;;;10.40;99.90;;;;;;5072542;28;20035;-67
2022/10/19 03:49:49;;;;;;;4.60;2.33;;;10.30;99.90;;;;;;5072380;28;20041;-67
2022/10/19 03:52:15;;;;;;;5.55;2.38;;;10.40;99.90;;;;;;5072255;28;20048;-67
2022/10/19 03:54:40;;;;;;;3.20;2.10;;;10.40;99.90;;;;;;5071971;28;20110;-67
2022/10/19 03:57:06;;;;;;;6.25;2.10;;;10.30;99.90;;;;;;5072205;28;20635;-67
2022/10/19 03:59:31;;;;;;;2.72;2.45;;;10.30;99.90;;;;;;5071997;28;20056;-68
2022/10/19 04:01:57;;;;;;;3.05;2.15;;;10.40;99.90;;;;;;5071961;28;20081;-67
2022/10/19 04:04:22;;;;;;;2.72;2.35;;;10.40;99.90;;;;;;5071636;28;20036;-67
2022/10/19 04:06:49;;;;;;;2.67;2.30;;;10.30;99.90;;;;;;5071982;28;20076;-67
2022/10/19 04:09:18;;;;;;;9.35;2.50;;;10.30;99.90;;;;;;5071858;28;20593;-67
2022/10/19 04:11:44;;;;;;;6.60;2.28;;;10.30;99.90;;;;;;5071902;28;20043;-67
2022/10/19 04:14:15;;;;;;;3.22;2.35;;;10.30;99.90;;;;;;5070533;28;20040;-68
2022/10/19 04:16:40;;;;;;;6.35;1.98;;;10.20;99.90;;;;;;5070024;28;20040;-67
2022/10/19 04:19:06;;;;;;;2.60;1.95;;;10.20;99.90;;;;;;5071807;28;20036;-67
2022/10/19 04:21:36;;;;;;;3.20;2.00;;;10.20;99.90;;;;;;5071036;28;20075;-67
2022/10/19 04:24:14;;;;;;;5.75;2.53;;;10.10;99.90;;;;;;5070181;28;20049;-67
2022/10/19 04:26:57;;;;;;;8.30;2.35;;;10.20;99.90;;;;;;5071727;28;20037;-67
2022/10/19 04:29:25;;;;;;;2.17;1.98;;;10.20;99.90;;;;;;5071770;28;20508;-67
2022/10/19 04:31:52;;;;;;;4.68;1.90;;;10.30;99.90;;;;;;5058385;28;20056;-67
2022/10/19 04:34:18;;;;;;;2.72;2.42;;;10.20;99.90;;;;;;5051254;28;20044;-67
2022/10/19 04:36:44;;;;;;;2.90;2.15;;;10.20;99.90;;;;;;5051659;28;20037;-67
2022/10/19 04:39:10;;;;;;;4.25;1.95;;;10.20;99.90;;;;;;5054431;28;20044;-67
2022/10/19 04:41:37;;;;;;;6.45;2.42;;;10.20;99.90;;;;;;5056752;28;20535;-67
2022/10/19 04:44:05;;;;;;;3.92;2.10;;;10.10;99.90;;;;;;5051498;28;20048;-68
2022/10/19 04:46:30;;;;;;;3.03;2.20;;;10.10;99.90;;;;;;5051395;28;20059;-67
2022/10/19 04:48:57;;;;;;;2.42;2.10;;;10.10;99.90;;;;;;5051760;28;20045;-68
2022/10/19 04:51:24;;;;;;;2.70;2.33;;;10.10;99.90;;;;;;5051573;28;20436;-67
2022/10/19 04:53:50;;;;;;;5.78;2.40;;;10.10;99.90;;;;;;5051515;28;20036;-67
2022/10/19 04:56:21;;;;;;;2.50;2.20;;;10.10;99.90;;;;;;5051310;28;20121;-67
2022/10/19 04:58:47;;;;;;;4.70;2.63;;;10.10;99.90;;;;;;5051315;28;20493;-68
2022/10/19 05:01:20;;;;;;;7.63;2.25;;;10.20;99.90;;;;;;5051385;28;20040;-67
2022/10/19 05:03:46;;;;;;;4.05;2.45;;;10.20;99.90;;;;;;5050954;28;20067;-68
2022/10/19 05:06:13;;;;;;;6.47;2.30;;;10.20;99.90;;;;;;5051229;28;20033;-68
2022/10/19 05:08:39;;;;;;;4.93;2.28;;;10.20;99.90;;;;;;5051265;28;20481;-67
2022/10/19 05:11:13;;;;;;;5.65;2.10;;;10.20;99.90;;;;;;5051455;28;20029;-67
2022/10/19 05:13:39;;;;;;;3.03;1.83;;;10.10;99.90;;;;;;5050941;28;20033;-67
2022/10/19 05:16:07;;;;;;;4.80;2.20;;;10.10;99.90;;;;;;5050937;28;20045;-67
2022/10/19 05:18:33;;;;;;;5.82;2.00;;;10.20;99.90;;;;;;5051374;28;20441;-68
2022/10/19 05:21:06;;;;;;;4.85;2.65;;;10.20;99.90;;;;;;5051443;28;20041;-67
2022/10/19 05:23:32;;;;;;;3.13;1.98;;;10.20;99.90;;;;;;5050884;28;20037;-68
2022/10/19 05:26:03;;;;;;;9.00;2.40;;;10.20;99.90;;;;;;5050752;28;20052;-68
2022/10/19 05:28:29;;;;;;;4.90;2.10;;;10.20;99.90;;;;;;5051153;28;20147;-68
2022/10/19 05:30:55;;;;;;;5.15;2.30;;;10.20;99.90;;;;;;5049800;28;20116;-68
2022/10/19 05:33:20;;;;;;;4.28;2.22;;;10.20;99.90;;;;;;5052870;28;20095;-67
2022/10/19 05:35:46;;;;;;;9.93;2.20;;;10.20;99.90;;;;;;5054388;28;20056;-67
2022/10/19 05:38:11;;;;;;;6.38;2.25;;;10.30;99.90;;;;;;5054891;28;20040;-67
2022/10/19 05:40:37;;;;;;;4.03;1.83;;;10.30;99.90;;;;;;5036730;28;20409;-67
2022/10/19 05:43:02;;;;;;;8.13;1.90;;;10.20;99.90;;;;;;5054724;28;20043;-67
2022/10/19 05:45:28;;;;;;;2.55;1.60;;;10.20;99.90;;;;;;5054178;28;20409;-67
2022/10/19 05:47:53;;;;;;;7.30;1.88;;;10.20;99.90;;;;;;5054599;28;20173;-67
2022/10/19 05:50:19;;;;;;;3.03;1.80;;;10.20;99.90;;;;;;5054611;28;20489;-67
2022/10/19 05:52:44;;;;;;;3.55;1.70;;;10.20;99.90;;;;;;5052871;28;20053;-67
2022/10/19 05:55:10;;;;;;;5.05;1.90;;;10.20;99.90;;;;;;5051587;28;20086;-68
2022/10/19 05:57:36;;;;;;;9.20;2.00;;;10.10;99.90;;;;;;5052473;28;20040;-67
2022/10/19 06:00:04;;;;;;;8.25;1.85;;;10.00;99.90;;;;;;5054489;28;20037;-68
2022/10/19 06:02:30;;;;;;;4.10;1.77;;;10.00;99.90;;;;;;5053626;28;20044;-68
2022/10/19 06:04:55;;;;;;;3.00;1.63;;;10.10;99.90;;;;;;5052805;28;20474;-68
2022/10/19 06:07:21;;;;;;;6.32;1.88;;;10.00;99.90;;;;;;5051687;28;20136;-67
2022/10/19 06:09:47;;;;;;;10.18;2.08;;;10.10;99.90;;;;;;5054390;28;20112;-68
2022/10/19 06:12:12;;;;;;;5.55;1.73;;;10.00;99.90;;;;;;5053963;28;20520;-68
2022/10/19 06:14:38;;;;;;;5.75;2.63;;;10.00;99.90;;;;;;5053747;28;20095;-67
2022/10/19 06:17:05;;;;;;;5.13;1.60;;;10.00;99.90;;;;;;5054134;28;20111;-68
2022/10/19 06:19:30;;;;;;;3.67;1.65;;;10.00;99.90;;;;;;5054017;28;20497;-68
2022/10/19 06:21:56;;;;;;;4.20;2.28;;;10.00;99.90;;;;;;5053964;28;20055;-67
2022/10/19 06:24:21;;;;;;;9.30;2.10;;;10.00;99.90;;;;;;5052436;28;20091;-68
2022/10/19 06:26:47;;;;;;;7.78;1.73;;;10.00;99.90;;;;;;5052680;28;20071;-68
2022/10/19 06:29:13;;;;;;;6.00;2.22;;;10.00;99.90;;;;;;5054090;28;20444;-68
2022/10/19 06:31:38;;;;;;;8.07;1.85;;;10.00;99.90;;;;;;5053785;28;20111;-68
2022/10/19 06:34:04;;;;;;;6.50;1.73;;;10.00;99.90;;;;;;5053489;28;20037;-68
2022/10/19 06:36:30;;;;;;;6.00;1.77;;;10.10;99.90;;;;;;5053601;28;20040;-68
2022/10/19 06:38:58;;;;;;;6.53;1.85;;;10.10;99.90;;;;;;5053803;28;20090;-68
2022/10/19 06:41:24;;;;;;;4.90;1.85;;;10.10;99.90;;;;;;5053829;28;20121;-68
2022/10/19 06:43:51;;;;;;;4.93;1.83;;;10.10;99.90;;;;;;5052672;28;20124;-68
2022/10/19 06:46:19;;;;;;;2.72;1.77;;;10.10;99.90;;;;;;5052963;28;20094;-68
2022/10/19 06:48:52;;;;;;;9.60;1.88;;;10.20;99.90;;;;;;5053323;28;20162;-68
2022/10/19 06:51:17;;;;;;;;;;;10.20;99.90;;;;;;5053849;28;20048;-68
2022/10/19 06:53:43;;;;;;;5.97;1.70;;;10.20;99.90;;;;;;5053199;28;19918;-67
2022/10/19 06:56:09;;;;;;;9.57;2.47;;;10.20;99.90;;;;;;5053373;28;20036;-68
2022/10/19 06:58:38;;;;;;;9.43;1.73;;;10.30;99.90;;;;;;5053389;28;20040;-68
2022/10/19 07:01:08;;;;;;;11.70;1.77;;;10.30;99.90;;;;;;5052036;28;20048;-68
2022/10/19 07:03:35;;;;;;;5.13;1.58;;;10.30;99.90;;;;;;5052963;28;20044;-68
2022/10/19 07:06:03;;;;;;;3.50;1.58;;;10.20;99.90;;;;;;5052962;28;20033;-68
2022/10/19 07:08:31;;;;;;;4.60;1.90;;;10.20;99.90;;;;;;5053058;28;20076;-67
2022/10/19 07:11:02;;;;;;;6.70;2.10;;;10.30;99.90;;;;;;5053214;28;20064;-68
2022/10/19 07:13:29;;;;;;;7.20;1.70;;;10.30;99.90;;;;;;5052893;28;20045;-68
2022/10/19 07:16:13;;;;;;;4.72;1.30;;;10.40;99.90;;;;;;5051272;28;20052;-67
2022/10/19 07:18:40;;;;;;;12.63;2.40;;;10.40;99.90;;;;;;5053117;28;20044;-67
2022/10/19 07:21:08;;;;;;;3.28;1.52;;;10.40;99.90;;;;;;5052798;28;20513;-68
2022/10/19 07:23:36;;;;;;;13.63;1.75;;;10.50;99.90;;;;;;5052648;28;20055;-68
2022/10/19 07:26:07;;;;;;;5.50;1.65;;;10.50;99.90;;;;;;5051028;28;20071;-68
2022/10/19 07:28:34;;;;;;;7.63;1.77;;;10.50;99.90;;;;;;5051357;28;20041;-68
2022/10/19 07:31:07;;;;;;;10.40;2.28;;;10.60;99.90;;;;;;5051216;28;20132;-68
2022/10/19 07:33:33;;;;;;;6.28;1.70;;;10.60;99.90;;;;;;5035005;28;20121;-68
2022/10/19 07:36:00;;;;;;;7.50;1.40;;;10.70;99.90;;;;;;5050856;28;20125;-68
2022/10/19 07:38:26;;;;;;;7.13;1.90;;;10.70;99.90;;;;;;5052701;28;20049;-68
2022/10/19 07:40:58;;;;;;;5.13;1.70;;;10.80;99.90;;;;;;5052355;28;20044;-67
2022/10/19 07:43:23;;;;;;;8.07;1.92;;;10.80;99.90;;;;;;5051026;28;20044;-67
2022/10/19 07:45:49;;;;;;;10.27;1.92;;;10.80;99.90;;;;;;5052187;28;20080;-68
2022/10/19 07:48:14;;;;;;;7.78;2.45;;;10.90;99.90;;;;;;5052416;28;20040;-68
2022/10/19 07:50:40;;;;;;;6.28;1.70;;;11.00;99.90;;;;;;5052229;28;20438;-67
2022/10/19 07:53:05;;;;;;;10.20;2.20;;;11.00;99.90;;;;;;5050860;28;20533;-68
2022/10/19 07:55:33;;;;;;;11.90;1.58;;;11.00;99.90;;;;;;5051479;28;20505;-68
2022/10/19 07:58:00;;;;;;;11.15;1.73;;;11.10;99.90;;;;;;5052010;28;20512;-67
2022/10/19 08:00:26;;;;;;;8.68;1.45;;;11.10;99.90;;;;;;5052030;28;20041;-67
2022/10/19 08:02:51;;;;;;;9.00;1.70;;;11.20;99.90;;;;;;5052043;28;20098;-67
2022/10/19 08:05:17;;;;;;;6.45;1.40;;;11.20;99.90;;;;;;5050362;28;20124;-67
2022/10/19 08:07:42;;;;;;;7.50;1.50;;;11.20;99.90;;;;;;5050628;28;20041;-67
2022/10/19 08:10:08;;;;;;;3.25;1.50;;;11.30;99.90;;;;;;5051811;28;20493;-68
2022/10/19 08:12:36;;;;;;;7.35;1.75;;;11.30;99.90;;;;;;5052028;28;20041;-67
2022/10/19 08:15:02;;;;;;;5.07;1.55;;;11.30;99.90;;;;;;5050054;28;20528;-67
2022/10/19 08:17:27;;;;;;;5.70;1.55;;;11.40;99.90;;;;;;5051797;28;20076;-67
2022/10/19 08:19:53;;;;;;;10.63;2.17;;;11.40;99.90;;;;;;5051892;28;20041;-68
2022/10/19 08:22:18;;;;;;;8.60;1.52;;;11.40;99.90;;;;;;5051861;28;20066;-67
2022/10/19 08:24:44;;;;;;;3.22;1.73;;;11.50;99.90;;;;;;5051142;28;20029;-67
2022/10/19 08:27:09;;;;;;;6.20;1.73;;;11.50;99.90;;;;;;5062300;28;20071;-67
2022/10/19 08:29:35;;;;;;;7.07;2.20;;;11.50;99.90;;;;;;5071203;28;20043;-67
2022/10/19 08:32:00;;;;;;;8.93;2.05;;;11.60;99.90;;;;;;5071743;28;20041;-67
2022/10/19 08:34:26;;;;;;;9.68;1.42;;;11.60;99.90;;;;;;5070229;28;20055;-68
2022/10/19 08:36:51;;;;;;;11.32;2.03;;;11.60;99.90;;;;;;5071461;28;20028;-73
2022/10/19 08:39:17;;;;;;;13.35;1.80;;;11.70;99.90;;;;;;5070046;28;20036;-73
2022/10/19 08:42:18;;;;;;;8.75;2.42;;;11.70;99.90;;;;;;5071588;28;20091;-72
2022/10/19 08:45:01;;;;;;;9.48;1.45;;;11.70;99.90;;;;;;5050354;28;20493;-68
2022/10/19 08:47:51;;;;;;;8.55;1.90;;;11.80;99.90;;;;;;5071420;28;20045;-68
2022/10/19 08:50:39;;;;;;;6.07;1.40;;;11.80;99.90;;;;;;5070338;28;20041;-68
2022/10/19 08:53:14;;;;;;;14.60;2.38;;;11.80;99.90;;;;;;5071617;28;20047;-68
2022/10/19 08:56:32;;;;;;;7.97;1.65;;;11.90;99.90;;;;;;5071460;28;20040;-68
2022/10/19 08:59:29;;;;;;;9.40;1.83;;;11.90;99.90;;;;;;5029096;28;20099;-68
2022/10/19 09:02:14;;;;;;;7.15;1.75;;;12.00;99.90;;;;;;5029034;28;20045;-68
2022/10/19 09:04:44;;;;;;;8.27;1.58;;;12.00;99.90;;;;;;5012570;28;20555;-68
2022/10/19 09:07:25;;;;;;;11.18;1.73;;;12.00;99.90;;;;;;5012708;28;20517;-68
2022/10/19 09:10:01;;;;;;;7.53;1.30;;;12.00;99.90;;;;;;5016869;28;20504;-68
2022/10/19 09:12:46;;;;;;;8.30;1.70;;;12.10;99.90;;;;;;5032899;28;20429;-68
2022/10/19 09:15:19;;;;;;;10.20;1.60;;;12.10;99.90;;;;;;5032564;28;20056;-68
2022/10/19 09:17:45;;;;;;;5.20;1.17;;;12.10;99.90;;;;;;5033007;28;20066;-68
2022/10/19 09:20:17;;;;;;;8.57;1.73;;;12.10;99.90;;;;;;5032509;28;20128;-68
2022/10/19 09:22:44;;;;;;;4.90;1.83;;;12.20;99.90;;;;;;5032712;28;20510;-68
2022/10/19 09:25:18;;;;;;;4.35;1.00;;;12.10;99.90;;;;;;5032214;28;20056;-68
2022/10/19 09:27:46;;;;;;;3.58;1.10;;;12.10;99.90;;;;;;5032841;28;20037;-68
2022/10/19 09:30:19;;;;;;;5.80;1.40;;;12.20;99.90;;;;;;5061752;28;20059;-67
2022/10/19 09:32:46;;;;;;;6.47;1.42;;;12.20;99.90;;;;;;5075229;28;20043;-68
2022/10/19 09:35:43;;;;;;;7.03;1.70;;;12.20;99.90;;;;;;5074712;28;20047;-68
2022/10/19 09:38:11;;;;;;;5.20;1.33;;;12.20;99.90;;;;;;5032251;28;20056;-68
2022/10/19 09:40:36;;;;;;;2.85;1.38;;;12.30;99.90;;;;;;5015871;28;20595;-68
2022/10/19 09:43:18;;;;;;;6.38;1.58;;;12.30;99.90;;;;;;5032123;28;20069;-68
2022/10/19 09:45:51;;;;;;;6.30;1.60;;;12.30;99.90;;;;;;5031994;28;20411;-67
2022/10/19 09:48:46;;;;;;;3.10;1.38;;;12.30;99.90;;;;;;5015783;28;20049;-68
2022/10/19 09:51:13;;;;;;;5.03;1.30;;;12.30;99.90;;;;;;5015764;28;20041;-68
2022/10/19 09:53:48;;;;;;;5.88;1.33;;;12.30;99.90;;;;;;5015621;28;20041;-68
2022/10/19 09:56:23;;;;;;;7.28;1.35;;;12.40;99.90;;;;;;5031492;28;20124;-68
2022/10/19 09:58:54;;;;;;;2.95;1.38;;;12.40;99.90;;;;;;5032270;28;20453;-68
2022/10/19 10:01:30;;;;;;;4.20;1.30;;;12.40;99.90;;;;;;5032026;28;20053;-68
2022/10/19 10:04:08;;;;;;;6.97;1.40;;;12.40;99.90;;;;;;5031769;28;20150;-68
2022/10/19 10:06:35;;;;;;;8.38;2.25;;;12.40;99.90;;;;;;5031836;28;20116;-68
2022/10/19 10:09:02;;;;;;;8.65;1.88;;;12.40;99.90;;;;;;5015392;28;20057;-68
2022/10/19 10:11:34;;;;;;;6.65;1.30;;;12.50;99.90;;;;;;5015311;28;20060;-68
2022/10/19 10:14:13;;;;;;;4.80;1.60;;;12.50;99.90;;;;;;5044009;28;20640;-68
2022/10/19 10:16:39;;;;;;;7.22;1.70;;;12.60;99.90;;;;;;5074075;28;20052;-68
2022/10/19 10:19:12;;;;;;;11.60;1.60;;;12.60;99.90;;;;;;5074010;28;20042;-68
2022/10/19 10:21:53;;;;;;;5.43;1.48;;;12.60;99.90;;;;;;5073993;28;20044;-68
2022/10/19 10:24:21;;;;;;;6.75;1.52;;;12.70;99.90;;;;;;5073802;28;20446;-68
2022/10/19 10:26:51;;;;;;;8.30;1.35;;;12.70;99.90;;;;;;5073870;28;20037;-74
2022/10/19 10:29:19;;;;;;;6.10;1.20;;;12.80;99.90;;;;;;5073695;28;20036;-75
2022/10/19 10:31:51;;;;;;;5.25;1.17;;;12.80;99.90;;;;;;5072523;28;20093;-72
2022/10/19 10:34:31;;;;;;;4.18;1.38;;;12.90;99.90;;;;;;5073681;28;20040;-74
2022/10/19 10:36:57;;;;;;;8.43;1.73;;;12.90;99.90;;;;;;5072403;28;20040;-69
2022/10/19 10:39:27;;;;;;;7.38;1.67;;;12.90;99.90;;;;;;5073716;28;20050;-68
2022/10/19 10:41:54;;;;;;;8.55;1.20;;;12.90;99.90;;;;;;5073667;28;20044;-69
2022/10/19 10:44:23;;;;;;;5.22;1.40;;;12.90;99.90;;;;;;5073093;28;20051;-70
2022/10/19 10:46:54;;;;;;;4.75;1.30;;;12.80;99.90;;;;;;5073512;28;20131;-69
2022/10/19 10:49:31;;;;;;;6.72;1.50;;;13.00;99.90;;;;;;5073635;28;20064;-70
2022/10/19 10:52:00;;;;;;;5.63;1.30;;;13.00;99.90;;;;;;5073583;28;20071;-69
2022/10/19 10:54:30;;;;;;;6.18;1.67;;;13.00;99.90;;;;;;5073024;28;20048;-69
2022/10/19 10:57:14;;;;;;;4.03;1.10;;;13.10;99.90;;;;;;5073363;28;20058;-69
2022/10/19 10:59:48;;;;;;;5.60;1.27;;;13.20;99.90;;;;;;5073510;28;20036;-69
2022/10/19 11:02:25;;;;;;;7.93;1.40;;;13.30;99.90;;;;;;5073156;28;20032;-69
2022/10/19 11:04:55;;;;;;;6.95;1.13;;;13.40;99.90;;;;;;5073248;28;20036;-70
2022/10/19 11:07:23;;;;;;;6.53;1.40;;;13.50;99.90;;;;;;5073053;28;20501;-69
2022/10/19 11:09:58;;;;;;;5.43;1.27;;;13.50;99.90;;;;;;5073224;28;20033;-68
2022/10/19 11:13:11;;;;;;;5.70;1.15;;;13.60;99.90;;;;;;5072840;28;20040;-69
2022/10/19 11:15:50;;;;;;;4.65;1.00;;;13.70;99.90;;;;;;5013932;28;20219;-68
2022/10/19 11:18:24;;;;;;;6.63;1.33;;;13.40;99.90;;;;;;5024267;28;20045;-70
2022/10/19 11:20:59;;;;;;;3.97;1.25;;;13.40;99.90;;;;;;5028376;28;20049;-70
2022/10/19 11:23:50;;;;;;;5.55;1.40;;;13.30;99.90;;;;;;5029716;28;20048;-70
2022/10/19 11:26:29;;;;;;;7.05;1.40;;;13.10;99.90;;;;;;5030108;28;20056;-69
2022/10/19 11:29:05;;;;;;;6.13;1.70;;;13.10;99.90;;;;;;5030273;28;20494;-70
2022/10/19 11:31:46;;;;;;;7.70;1.77;;;13.10;99.90;;;;;;5013489;28;20053;-69
2022/10/19 11:34:39;;;;;;;3.33;1.30;;;13.10;99.90;;;;;;5013494;28;20099;-69
2022/10/19 11:37:13;;;;;;;3.33;1.50;;;13.10;99.90;;;;;;5030223;28;20042;-70
2022/10/19 11:39:50;;;;;;;7.47;1.27;;;13.20;99.90;;;;;;5030036;28;20052;-69
2022/10/19 11:42:41;;;;;;;4.25;1.48;;;13.10;99.90;;;;;;5030065;28;20498;-69
2022/10/19 11:45:29;;;;;;;4.47;1.35;;;13.10;99.90;;;;;;5029614;28;20805;-69
2022/10/19 11:47:58;;;;;;;8.18;1.30;;;13.10;99.90;;;;;;5030073;28;20055;-69
2022/10/19 11:50:46;;;;;;;4.03;1.30;;;13.10;99.90;;;;;;5029922;28;20116;-69
2022/10/19 11:53:15;;;;;;;12.60;1.48;;;13.10;99.90;;;;;;5072232;28;20535;-69
2022/10/19 11:56:05;;;;;;;4.65;1.30;;;13.20;99.90;;;;;;5071764;28;20051;-69
2022/10/19 11:58:49;;;;;;;5.53;1.45;;;13.20;99.90;;;;;;5072145;28;20489;-69
2022/10/19 12:01:36;;;;;;;7.90;2.00;;;13.10;99.90;;;;;;5072248;28;20044;-69
2022/10/19 12:04:27;;;;;;;3.38;1.58;;;13.20;99.90;;;;;;5071619;28;20041;-69
2022/10/19 12:06:56;;;;;;;6.18;1.40;;;13.30;99.90;;;;;;5072061;28;20392;-68
2022/10/19 12:09:50;;;;;;;5.75;1.90;;;13.20;99.90;;;;;;5072085;28;20090;-69
2022/10/19 12:12:44;;;;;;;6.95;1.48;;;13.30;99.90;;;;;;5017064;28;20046;-69
2022/10/19 12:15:10;;;;;;;7.80;1.45;;;13.10;99.90;;;;;;5067647;28;20060;-69
2022/10/19 12:17:38;;;;;;;5.28;1.50;;;13.10;99.90;;;;;;5071685;28;20505;-69
2022/10/19 12:20:14;;;;;;;3.75;1.50;;;13.00;99.90;;;;;;5072017;28;20037;-69
2022/10/19 12:22:39;;;;;;;8.05;1.65;;;13.00;99.90;;;;;;5072088;28;20044;-69
2022/10/19 12:25:06;;;;;;;14.63;3.80;;;13.00;99.90;;;;;;5071446;28;20035;-69
2022/10/19 12:27:37;;;;;;;8.95;2.45;;;13.10;99.90;;;;;;5071804;28;20148;-69
2022/10/19 12:30:11;;;;;;;5.22;2.08;;;13.00;99.90;;;;;;5071780;28;20570;-69
2022/10/19 12:33:04;;;;;;;5.88;1.80;;;13.10;99.90;;;;;;5070605;28;20048;-69
2022/10/19 12:35:57;;;;;;;8.10;1.90;;;13.10;99.90;;;;;;5008993;28;20053;-69
2022/10/19 12:38:53;;;;;;;3.05;1.70;;;13.10;99.90;;;;;;5009565;28;20053;-69
2022/10/19 12:41:28;;;;;;;4.20;1.90;;;13.10;99.90;;;;;;5009513;28;20057;-69
2022/10/19 12:44:26;;;;;;;2.70;1.58;;;13.10;99.90;;;;;;5008342;28;20554;-69
2022/10/19 12:47:05;;;;;;;4.93;1.63;;;13.10;99.90;;;;;;4979871;28;20454;-69
2022/10/19 12:49:37;;;;;;;6.18;1.52;;;13.20;99.90;;;;;;5009406;28;20037;-69
2022/10/19 12:52:03;;;;;;;8.45;1.80;;;13.20;99.90;;;;;;5009420;28;20477;-69
2022/10/19 12:54:35;;;;;;;3.42;1.48;;;13.30;99.90;;;;;;5008998;28;20514;-69
2022/10/19 12:57:02;;;;;;;11.52;2.05;;;13.30;99.90;;;;;;5009398;28;20387;-69
2022/10/19 12:59:33;;;;;;;5.35;1.67;;;13.30;99.90;;;;;;5009164;28;20104;-69
2022/10/19 13:02:01;;;;;;;7.18;2.30;;;13.40;99.90;;;;;;5009303;28;20042;-69
2022/10/19 13:04:32;;;;;;;8.45;1.88;;;13.40;99.90;;;;;;5008812;28;20049;-69
2022/10/19 13:07:01;;;;;;;6.13;2.05;;;13.30;99.90;;;;;;5009154;28;20088;-69
2022/10/19 13:09:37;;;;;;;5.00;1.73;;;13.30;99.90;;;;;;5009267;28;20049;-69